Emmagracht — PDYX — position and weather

sailwx.info

Track history (hours):
 
Tides and Currents Weather Stations Pressure Air Temp Water Temp Dewpoint Dewpoint Depression Visibility Wind Speed Wind Dir Waves Ship Positions

Emmagracht

Last reported at 2016-Dec-20 04:26 UTC. Time now 2017-Jan-20 05:54 UTC.
Position N 53°34' W 004°15'.
Warning: this ship's position is 31 days out of date.

Length 136 m; beam 19 m; draft 9 m.

Type: Cargo ship. MMSI: 246308000.

Date/timePositionNaut miles runAvg speedWind from/ knotsBaromVisibWave heightAir tempDewpointWater temp
2016-Dec-20 04:26N 53°34' W 004°15'1315.2
2016-Dec-20 03:33N 53°34' W 003°53'1414.3
2016-Dec-20 02:33N 53°33' W 003°29'1111.5
2016-Dec-20 01:33N 53°32' W 003°10'7 6.9
2016-Dec-20 00:33N 53°27' W 003°01'1 0.6
2016-Dec-19 23:33N 53°28' W 003°02'0 0.0
2016-Dec-19 22:33N 53°28' W 003°02'0 0.0
2016-Dec-19 21:33N 53°28' W 003°02'0 0.0
2016-Dec-19 20:33N 53°28' W 003°02'0 0.0
2016-Dec-19 19:33N 53°28' W 003°02'0 0.0
2016-Dec-19 18:33N 53°28' W 003°02'0 0.0
2016-Dec-19 17:33N 53°28' W 003°02'0 0.0
2016-Dec-19 16:33N 53°28' W 003°02'1 0.7
2016-Dec-19 15:33N 53°27' W 003°01'0 0.4
2016-Dec-19 14:33N 53°27' W 003°01'7 6.8
2016-Dec-19 13:33N 53°32' W 003°09'1010.5
2016-Dec-19 12:34N 53°31' W 003°26'2 2.0
2016-Dec-19 11:33N 53°29' W 003°27'0 0.0
2016-Dec-19 10:33N 53°29' W 003°27'0 0.0
2016-Dec-19 09:33N 53°29' W 003°27'0 0.1
2016-Dec-19 08:33N 53°29' W 003°27'0 0.1
2016-Dec-19 07:30N 53°29' W 003°27'0 0.0
2016-Dec-19 06:33N 53°29' W 003°27'0 0.0
2016-Dec-19 05:30N 53°29' W 003°27'0 0.0
2016-Dec-19 04:33N 53°29' W 003°27'0 0.0
2016-Dec-19 03:27N 53°29' W 003°27'0 0.1
2016-Dec-19 02:33N 53°29' W 003°27'0 0.0
2016-Dec-19 01:33N 53°29' W 003°27'0 0.0
2016-Dec-19 00:30N 53°29' W 003°27'0 0.0
2016-Dec-18 23:27N 53°29' W 003°27'0 0.0
2016-Dec-18 22:33N 53°29' W 003°27'0 0.0
2016-Dec-18 21:33N 53°29' W 003°27'0 0.1
2016-Dec-18 20:30N 53°29' W 003°27'0 0.0
2016-Dec-18 19:33N 53°29' W 003°27'0 0.0
2016-Dec-18 18:24N 53°29' W 003°27'0 0.0
2016-Dec-18 17:24N 53°29' W 003°27'0 0.0
2016-Dec-18 16:33N 53°29' W 003°27'0 0.0
2016-Dec-18 15:30N 53°29' W 003°27'0 0.1
2016-Dec-18 14:30N 53°29' W 003°27'0 0.0
2016-Dec-18 13:30N 53°29' W 003°27'0 0.0
2016-Dec-18 12:29N 53°29' W 003°27'0 0.0
2016-Dec-18 11:32N 53°29' W 003°27'0 0.0
2016-Dec-18 10:29N 53°29' W 003°27'0 0.0
2016-Dec-18 09:32N 53°29' W 003°27'0 0.0
2016-Dec-18 08:29N 53°29' W 003°27'0 0.1
2016-Dec-18 07:32N 53°29' W 003°27'0 0.0
2016-Dec-18 06:32N 53°29' W 003°27'0 0.0
2016-Dec-18 05:32N 53°29' W 003°27'0 0.0
2016-Dec-18 04:29N 53°29' W 003°27'0 0.0
2016-Dec-18 03:29N 53°29' W 003°27'0 0.0
2016-Dec-18 02:32N 53°29' W 003°27'0 0.1
2016-Dec-18 01:33N 53°29' W 003°27'8 7.9
2016-Dec-18 00:34N 53°31' W 003°40'1614.4
2016-Dec-17 23:28N 53°38' W 004°04'3615.1
2016-Dec-17 21:04N 54°00' W 004°53'714.0
2016-Dec-17 20:32N 54°06' W 004°59'1313.8
2016-Dec-17 19:33N 54°18' W 005°09'1313.4
2016-Dec-17 18:33N 54°30' W 005°19'1212.2
2016-Dec-17 17:33N 54°42' W 005°28'1312.6
2016-Dec-17 16:33N 54°40' W 005°50'5 4.2
2016-Dec-17 15:26N 54°37' W 005°55'0 0.0
2016-Dec-17 14:32N 54°37' W 005°55'0 0.0
2016-Dec-17 13:32N 54°37' W 005°55'0 0.0
2016-Dec-17 10:20N 54°37' W 005°55'0 0.0
2016-Dec-17 08:26N 54°37' W 005°55'0 0.0
2016-Dec-17 07:32N 54°37' W 005°55'0 0.0
2016-Dec-17 06:20N 54°37' W 005°55'0 0.0
2016-Dec-17 05:32N 54°37' W 005°55'0 0.0
2016-Dec-17 04:32N 54°37' W 005°55'0 0.0
2016-Dec-17 03:32N 54°37' W 005°55'0 0.0
2016-Dec-17 02:23N 54°37' W 005°55'0 0.0
2016-Dec-17 01:29N 54°37' W 005°55'0 0.0
2016-Dec-17 00:17N 54°37' W 005°55'0 0.0
2016-Dec-16 23:16N 54°37' W 005°55'0 0.0
2016-Dec-16 22:31N 54°37' W 005°55'0 0.0
2016-Dec-16 20:19N 54°37' W 005°55'0 0.0
2016-Dec-16 17:25N 54°37' W 005°55'0 0.0
2016-Dec-16 16:19N 54°37' W 005°55'0 0.0
2016-Dec-16 15:31N 54°37' W 005°55'0 0.0
2016-Dec-16 14:13N 54°37' W 005°55'0 0.0
2016-Dec-16 13:31N 54°37' W 005°55'0 0.0
2016-Dec-16 09:19N 54°37' W 005°55'0 0.0
2016-Dec-16 06:25N 54°37' W 005°55'0 0.0
2016-Dec-16 05:16N 54°37' W 005°55'0 0.0
2016-Dec-16 01:16N 54°37' W 005°55'1 0.1
2016-Dec-15 18:33N 54°37' W 005°54'7 7.5
2016-Dec-15 17:33N 54°42' W 005°44'1110.6
2016-Dec-15 16:33N 54°40' W 005°26'1212.3
2016-Dec-15 15:33N 54°28' W 005°20'1212.5
2016-Dec-15 14:34N 54°16' W 005°19'1615.5
2016-Dec-15 13:33N 54°01' W 005°22'18416.0
2016-Dec-15 02:05N 50°57' W 005°52'714.4
2016-Dec-15 01:33N 50°50' W 005°52'1414.3
2016-Dec-15 00:33N 50°36' W 005°52'1413.9
2016-Dec-14 23:33N 50°22' W 005°53'1413.8
2016-Dec-14 22:33N 50°08' W 005°53'3411.4
2016-Dec-14 19:31N 49°53' W 005°05'1111.0
2016-Dec-14 18:32N 49°53' W 004°48'1010.4
2016-Dec-14 17:34N 49°55' W 004°32'1110.5
2016-Dec-14 16:32N 49°55' W 004°16'1111.5
2016-Dec-14 15:33N 49°57' W 003°58'1111.0
2016-Dec-14 14:34N 49°57' W 003°41'1413.9
2016-Dec-14 13:33N 49°58' W 003°20'1515.5
2016-Dec-14 12:33N 50°00' W 002°56'1615.2
2016-Dec-14 11:29N 50°04' W 002°31'1314.0
2016-Dec-14 10:34N 50°08' W 002°12'1412.2
2016-Dec-14 09:24N 50°11' W 001°51'1010.7
2016-Dec-14 08:28N 50°14' W 001°36'910.1
2016-Dec-14 07:34N 50°17' W 001°22'1110.5
2016-Dec-14 06:33N 50°19' W 001°06'1912.9
2016-Dec-14 05:06N 50°24' W 000°37'815.0
2016-Dec-14 04:34N 50°26' W 000°25'1615.6
2016-Dec-14 03:33N 50°30' W 000°01'1615.7
2016-Dec-14 02:33N 50°34' E 000°23'2914.3
2016-Dec-14 00:33N 50°48' E 001°02'1212.3
2016-Dec-13 23:33N 50°55' E 001°18'1111.2
2016-Dec-13 22:34N 51°03' E 001°30'1212.3
2016-Dec-13 21:33N 51°12' E 001°44'1111.1
2016-Dec-13 20:34N 51°21' E 001°54'7 7.4
2016-Dec-13 19:34N 51°24' E 002°05'1413.5
2016-Dec-13 18:33N 51°22' E 002°27'8 8.2
2016-Dec-13 17:33N 51°22' E 002°40'1111.2
2016-Dec-13 16:33N 51°24' E 002°58'1313.2
2016-Dec-13 15:33N 51°24' E 003°19'1312.9
2016-Dec-13 14:34N 51°26' E 003°39'1110.8
2016-Dec-13 13:33N 51°22' E 003°55'5 5.4
2016-Dec-13 12:33N 51°22' E 004°04'8 8.0
2016-Dec-13 11:33N 51°21' E 004°16'4 3.9
2016-Dec-13 10:33N 51°17' E 004°15'1 1.4
2016-Dec-13 09:31N 51°15' E 004°14'0 0.0
2016-Dec-13 08:31N 51°15' E 004°14'0 0.0
2016-Dec-13 07:25N 51°15' E 004°14'0 0.0
2016-Dec-13 06:31N 51°15' E 004°14'0 0.0
2016-Dec-13 05:31N 51°15' E 004°14'0 0.0
2016-Dec-13 04:31N 51°15' E 004°14'0 0.0
2016-Dec-13 03:31N 51°15' E 004°14'0 0.0
2016-Dec-13 02:28N 51°15' E 004°14'0 0.0
2016-Dec-13 01:22N 51°15' E 004°14'0 0.0
2016-Dec-13 00:34N 51°15' E 004°14'0 0.0
2016-Dec-12 23:28N 51°15' E 004°14'0 0.0
2016-Dec-12 22:33N 51°15' E 004°14'0 0.0
2016-Dec-12 21:33N 51°15' E 004°14'0 0.0
2016-Dec-12 20:33N 51°15' E 004°14'0 0.0
2016-Dec-12 19:33N 51°15' E 004°14'0 0.0
2016-Dec-12 18:33N 51°15' E 004°14'0 0.0
2016-Dec-12 17:33N 51°15' E 004°14'0 0.0
2016-Dec-12 16:33N 51°15' E 004°14'0 0.0
2016-Dec-12 15:33N 51°15' E 004°14'0 0.0
2016-Dec-12 14:33N 51°15' E 004°14'0 0.0
2016-Dec-12 13:33N 51°15' E 004°14'0 0.0
2016-Dec-12 12:33N 51°15' E 004°14'0 0.0
2016-Dec-12 11:33N 51°15' E 004°14'0 0.0
2016-Dec-12 10:33N 51°15' E 004°14'0 0.0
2016-Dec-12 09:33N 51°15' E 004°14'0 0.0
2016-Dec-12 08:30N 51°15' E 004°14'0 0.0
2016-Dec-12 07:33N 51°15' E 004°14'0 0.0
2016-Dec-12 06:24N 51°15' E 004°14'0 0.0
2016-Dec-12 05:33N 51°15' E 004°14'0 0.0
2016-Dec-12 04:33N 51°15' E 004°14'0 0.0
2016-Dec-12 03:33N 51°15' E 004°14'0 0.0
2016-Dec-12 02:33N 51°15' E 004°14'0 0.0
2016-Dec-12 01:33N 51°15' E 004°14'0 0.0
2016-Dec-12 00:33N 51°15' E 004°14'0 0.0
2016-Dec-11 23:33N 51°15' E 004°14'0 0.0
2016-Dec-11 22:33N 51°15' E 004°14'0 0.0
2016-Dec-11 21:33N 51°15' E 004°14'0 0.0
2016-Dec-11 20:33N 51°15' E 004°14'0 0.0
2016-Dec-11 19:30N 51°15' E 004°14'0 0.0
2016-Dec-11 18:33N 51°15' E 004°14'0 0.0
2016-Dec-11 17:33N 51°15' E 004°14'0 0.0
2016-Dec-11 16:33N 51°15' E 004°14'0 0.0
2016-Dec-11 15:33N 51°15' E 004°14'0 0.0
2016-Dec-11 14:30N 51°15' E 004°14'0 0.0
2016-Dec-11 13:33N 51°15' E 004°14'0 0.0
2016-Dec-11 12:29N 51°15' E 004°14'0 0.0
2016-Dec-11 11:26N 51°15' E 004°14'0 0.0
2016-Dec-11 10:32N 51°15' E 004°14'0 0.0
2016-Dec-11 09:32N 51°15' E 004°14'0 0.0
2016-Dec-11 08:32N 51°15' E 004°14'0 0.0
2016-Dec-11 07:32N 51°15' E 004°14'0 0.0
2016-Dec-11 06:32N 51°15' E 004°14'0 0.0
2016-Dec-11 05:32N 51°15' E 004°14'0 0.0
2016-Dec-11 04:32N 51°15' E 004°14'0 0.0
2016-Dec-11 03:29N 51°15' E 004°14'0 0.0
2016-Dec-11 02:32N 51°15' E 004°14'0 0.0
2016-Dec-11 01:32N 51°15' E 004°14'0 0.0
2016-Dec-11 00:29N 51°15' E 004°14'0 0.0
2016-Dec-10 23:32N 51°15' E 004°14'0 0.0
2016-Dec-10 22:32N 51°15' E 004°14'0 0.0
2016-Dec-10 21:29N 51°15' E 004°14'0 0.0
2016-Dec-10 20:29N 51°15' E 004°14'0 0.0
2016-Dec-10 19:29N 51°15' E 004°14'0 0.0
2016-Dec-10 18:29N 51°15' E 004°14'0 0.0
2016-Dec-10 17:32N 51°15' E 004°14'0 0.0
2016-Dec-10 16:29N 51°15' E 004°14'2 1.9
2016-Dec-10 15:34N 51°16' E 004°17'0 0.2
2016-Dec-10 14:33N 51°16' E 004°17'7 6.8
2016-Dec-10 13:33N 51°22' E 004°13'9 9.2
2016-Dec-10 12:33N 51°26' E 003°60'1110.7
2016-Dec-10 11:34N 51°23' E 003°44'1111.3
2016-Dec-10 10:34N 51°29' E 003°29'1211.7
2016-Dec-10 09:34N 51°39' E 003°19'1111.2
2016-Dec-10 08:33N 51°48' E 003°09'13 6.1
2016-Dec-10 06:21N 51°60' E 003°20'1112.7
2016-Dec-10 05:29N 52°11' E 003°23'  
Track history (hours):
 
Tides and Currents Weather Stations Pressure Air Temp Water Temp Dewpoint Dewpoint Depression Visibility Wind Speed Wind Dir Waves Ship Positions

Emmagracht

Last reported at 2016-Dec-20 04:26 UTC. Time now 2017-Jan-20 05:54 UTC.
Position N 53°34' W 004°15'.
Warning: this ship's position is 31 days out of date.

Length 136 m; beam 19 m; draft 9 m.

Type: Cargo ship. MMSI: 246308000.

Date/timePositionNaut miles runAvg speedWind from/ knotsBaromVisibWave heightAir tempDewpointWater temp
2016-Dec-20 04:26N 53°34' W 004°15'1315.2
2016-Dec-20 03:33N 53°34' W 003°53'1414.3
2016-Dec-20 02:33N 53°33' W 003°29'1111.5
2016-Dec-20 01:33N 53°32' W 003°10'7 6.9
2016-Dec-20 00:33N 53°27' W 003°01'1 0.6
2016-Dec-19 23:33N 53°28' W 003°02'0 0.0
2016-Dec-19 22:33N 53°28' W 003°02'0 0.0
2016-Dec-19 21:33N 53°28' W 003°02'0 0.0
2016-Dec-19 20:33N 53°28' W 003°02'0 0.0
2016-Dec-19 19:33N 53°28' W 003°02'0 0.0
2016-Dec-19 18:33N 53°28' W 003°02'0 0.0
2016-Dec-19 17:33N 53°28' W 003°02'0 0.0
2016-Dec-19 16:33N 53°28' W 003°02'1 0.7
2016-Dec-19 15:33N 53°27' W 003°01'0 0.4
2016-Dec-19 14:33N 53°27' W 003°01'7 6.8
2016-Dec-19 13:33N 53°32' W 003°09'1010.5
2016-Dec-19 12:34N 53°31' W 003°26'2 2.0
2016-Dec-19 11:33N 53°29' W 003°27'0 0.0
2016-Dec-19 10:33N 53°29' W 003°27'0 0.0
2016-Dec-19 09:33N 53°29' W 003°27'0 0.1
2016-Dec-19 08:33N 53°29' W 003°27'0 0.1
2016-Dec-19 07:30N 53°29' W 003°27'0 0.0
2016-Dec-19 06:33N 53°29' W 003°27'0 0.0
2016-Dec-19 05:30N 53°29' W 003°27'0 0.0
2016-Dec-19 04:33N 53°29' W 003°27'0 0.0
2016-Dec-19 03:27N 53°29' W 003°27'0 0.1
2016-Dec-19 02:33N 53°29' W 003°27'0 0.0
2016-Dec-19 01:33N 53°29' W 003°27'0 0.0
2016-Dec-19 00:30N 53°29' W 003°27'0 0.0
2016-Dec-18 23:27N 53°29' W 003°27'0 0.0
2016-Dec-18 22:33N 53°29' W 003°27'0 0.0
2016-Dec-18 21:33N 53°29' W 003°27'0 0.1
2016-Dec-18 20:30N 53°29' W 003°27'0 0.0
2016-Dec-18 19:33N 53°29' W 003°27'0 0.0
2016-Dec-18 18:24N 53°29' W 003°27'0 0.0
2016-Dec-18 17:24N 53°29' W 003°27'0 0.0
2016-Dec-18 16:33N 53°29' W 003°27'0 0.0
2016-Dec-18 15:30N 53°29' W 003°27'0 0.1
2016-Dec-18 14:30N 53°29' W 003°27'0 0.0
2016-Dec-18 13:30N 53°29' W 003°27'0 0.0
2016-Dec-18 12:29N 53°29' W 003°27'0 0.0
2016-Dec-18 11:32N 53°29' W 003°27'0 0.0
2016-Dec-18 10:29N 53°29' W 003°27'0 0.0
2016-Dec-18 09:32N 53°29' W 003°27'0 0.0
2016-Dec-18 08:29N 53°29' W 003°27'0 0.1
2016-Dec-18 07:32N 53°29' W 003°27'0 0.0
2016-Dec-18 06:32N 53°29' W 003°27'0 0.0
2016-Dec-18 05:32N 53°29' W 003°27'0 0.0
2016-Dec-18 04:29N 53°29' W 003°27'0 0.0
2016-Dec-18 03:29N 53°29' W 003°27'0 0.0
2016-Dec-18 02:32N 53°29' W 003°27'0 0.1
2016-Dec-18 01:33N 53°29' W 003°27'8 7.9
2016-Dec-18 00:34N 53°31' W 003°40'1614.4
2016-Dec-17 23:28N 53°38' W 004°04'3615.1
2016-Dec-17 21:04N 54°00' W 004°53'714.0
2016-Dec-17 20:32N 54°06' W 004°59'1313.8
2016-Dec-17 19:33N 54°18' W 005°09'1313.4
2016-Dec-17 18:33N 54°30' W 005°19'1212.2
2016-Dec-17 17:33N 54°42' W 005°28'1312.6
2016-Dec-17 16:33N 54°40' W 005°50'5 4.2
2016-Dec-17 15:26N 54°37' W 005°55'0 0.0
2016-Dec-17 14:32N 54°37' W 005°55'0 0.0
2016-Dec-17 13:32N 54°37' W 005°55'0 0.0
2016-Dec-17 10:20N 54°37' W 005°55'0 0.0
2016-Dec-17 08:26N 54°37' W 005°55'0 0.0
2016-Dec-17 07:32N 54°37' W 005°55'0 0.0
2016-Dec-17 06:20N 54°37' W 005°55'0 0.0
2016-Dec-17 05:32N 54°37' W 005°55'0 0.0
2016-Dec-17 04:32N 54°37' W 005°55'0 0.0
2016-Dec-17 03:32N 54°37' W 005°55'0 0.0
2016-Dec-17 02:23N 54°37' W 005°55'0 0.0
2016-Dec-17 01:29N 54°37' W 005°55'0 0.0
2016-Dec-17 00:17N 54°37' W 005°55'0 0.0
2016-Dec-16 23:16N 54°37' W 005°55'0 0.0
2016-Dec-16 22:31N 54°37' W 005°55'0 0.0
2016-Dec-16 20:19N 54°37' W 005°55'0 0.0
2016-Dec-16 17:25N 54°37' W 005°55'0 0.0
2016-Dec-16 16:19N 54°37' W 005°55'0 0.0
2016-Dec-16 15:31N 54°37' W 005°55'0 0.0
2016-Dec-16 14:13N 54°37' W 005°55'0 0.0
2016-Dec-16 13:31N 54°37' W 005°55'0 0.0
2016-Dec-16 09:19N 54°37' W 005°55'0 0.0
2016-Dec-16 06:25N 54°37' W 005°55'0 0.0
2016-Dec-16 05:16N 54°37' W 005°55'0 0.0
2016-Dec-16 01:16N 54°37' W 005°55'1 0.1
2016-Dec-15 18:33N 54°37' W 005°54'7 7.5
2016-Dec-15 17:33N 54°42' W 005°44'1110.6
2016-Dec-15 16:33N 54°40' W 005°26'1212.3
2016-Dec-15 15:33N 54°28' W 005°20'1212.5
2016-Dec-15 14:34N 54°16' W 005°19'1615.5
2016-Dec-15 13:33N 54°01' W 005°22'18416.0
2016-Dec-15 02:05N 50°57' W 005°52'714.4
2016-Dec-15 01:33N 50°50' W 005°52'1414.3
2016-Dec-15 00:33N 50°36' W 005°52'1413.9
2016-Dec-14 23:33N 50°22' W 005°53'1413.8
2016-Dec-14 22:33N 50°08' W 005°53'3411.4
2016-Dec-14 19:31N 49°53' W 005°05'1111.0
2016-Dec-14 18:32N 49°53' W 004°48'1010.4
2016-Dec-14 17:34N 49°55' W 004°32'1110.5
2016-Dec-14 16:32N 49°55' W 004°16'1111.5
2016-Dec-14 15:33N 49°57' W 003°58'1111.0
2016-Dec-14 14:34N 49°57' W 003°41'1413.9
2016-Dec-14 13:33N 49°58' W 003°20'1515.5
2016-Dec-14 12:33N 50°00' W 002°56'1615.2
2016-Dec-14 11:29N 50°04' W 002°31'1314.0
2016-Dec-14 10:34N 50°08' W 002°12'1412.2
2016-Dec-14 09:24N 50°11' W 001°51'1010.7
2016-Dec-14 08:28N 50°14' W 001°36'910.1
2016-Dec-14 07:34N 50°17' W 001°22'1110.5
2016-Dec-14 06:33N 50°19' W 001°06'1912.9
2016-Dec-14 05:06N 50°24' W 000°37'815.0
2016-Dec-14 04:34N 50°26' W 000°25'1615.6
2016-Dec-14 03:33N 50°30' W 000°01'1615.7
2016-Dec-14 02:33N 50°34' E 000°23'2914.3
2016-Dec-14 00:33N 50°48' E 001°02'1212.3
2016-Dec-13 23:33N 50°55' E 001°18'1111.2
2016-Dec-13 22:34N 51°03' E 001°30'1212.3
2016-Dec-13 21:33N 51°12' E 001°44'1111.1
2016-Dec-13 20:34N 51°21' E 001°54'7 7.4
2016-Dec-13 19:34N 51°24' E 002°05'1413.5
2016-Dec-13 18:33N 51°22' E 002°27'8 8.2
2016-Dec-13 17:33N 51°22' E 002°40'1111.2
2016-Dec-13 16:33N 51°24' E 002°58'1313.2
2016-Dec-13 15:33N 51°24' E 003°19'1312.9
2016-Dec-13 14:34N 51°26' E 003°39'1110.8
2016-Dec-13 13:33N 51°22' E 003°55'5 5.4
2016-Dec-13 12:33N 51°22' E 004°04'8 8.0
2016-Dec-13 11:33N 51°21' E 004°16'4 3.9
2016-Dec-13 10:33N 51°17' E 004°15'1 1.4
2016-Dec-13 09:31N 51°15' E 004°14'0 0.0
2016-Dec-13 08:31N 51°15' E 004°14'0 0.0
2016-Dec-13 07:25N 51°15' E 004°14'0 0.0
2016-Dec-13 06:31N 51°15' E 004°14'0 0.0
2016-Dec-13 05:31N 51°15' E 004°14'0 0.0
2016-Dec-13 04:31N 51°15' E 004°14'0 0.0
2016-Dec-13 03:31N 51°15' E 004°14'0 0.0
2016-Dec-13 02:28N 51°15' E 004°14'0 0.0
2016-Dec-13 01:22N 51°15' E 004°14'0 0.0
2016-Dec-13 00:34N 51°15' E 004°14'0 0.0
2016-Dec-12 23:28N 51°15' E 004°14'0 0.0
2016-Dec-12 22:33N 51°15' E 004°14'0 0.0
2016-Dec-12 21:33N 51°15' E 004°14'0 0.0
2016-Dec-12 20:33N 51°15' E 004°14'0 0.0
2016-Dec-12 19:33N 51°15' E 004°14'0 0.0
2016-Dec-12 18:33N 51°15' E 004°14'0 0.0
2016-Dec-12 17:33N 51°15' E 004°14'0 0.0
2016-Dec-12 16:33N 51°15' E 004°14'0 0.0
2016-Dec-12 15:33N 51°15' E 004°14'0 0.0
2016-Dec-12 14:33N 51°15' E 004°14'0 0.0
2016-Dec-12 13:33N 51°15' E 004°14'0 0.0
2016-Dec-12 12:33N 51°15' E 004°14'0 0.0
2016-Dec-12 11:33N 51°15' E 004°14'0 0.0
2016-Dec-12 10:33N 51°15' E 004°14'0 0.0
2016-Dec-12 09:33N 51°15' E 004°14'0 0.0
2016-Dec-12 08:30N 51°15' E 004°14'0 0.0
2016-Dec-12 07:33N 51°15' E 004°14'0 0.0
2016-Dec-12 06:24N 51°15' E 004°14'0 0.0
2016-Dec-12 05:33N 51°15' E 004°14'0 0.0
2016-Dec-12 04:33N 51°15' E 004°14'0 0.0
2016-Dec-12 03:33N 51°15' E 004°14'0 0.0
2016-Dec-12 02:33N 51°15' E 004°14'0 0.0
2016-Dec-12 01:33N 51°15' E 004°14'0 0.0
2016-Dec-12 00:33N 51°15' E 004°14'0 0.0
2016-Dec-11 23:33N 51°15' E 004°14'0 0.0
2016-Dec-11 22:33N 51°15' E 004°14'0 0.0
2016-Dec-11 21:33N 51°15' E 004°14'0 0.0
2016-Dec-11 20:33N 51°15' E 004°14'0 0.0
2016-Dec-11 19:30N 51°15' E 004°14'0 0.0
2016-Dec-11 18:33N 51°15' E 004°14'0 0.0
2016-Dec-11 17:33N 51°15' E 004°14'0 0.0
2016-Dec-11 16:33N 51°15' E 004°14'0 0.0
2016-Dec-11 15:33N 51°15' E 004°14'0 0.0
2016-Dec-11 14:30N 51°15' E 004°14'0 0.0
2016-Dec-11 13:33N 51°15' E 004°14'0 0.0
2016-Dec-11 12:29N 51°15' E 004°14'0 0.0
2016-Dec-11 11:26N 51°15' E 004°14'0 0.0
2016-Dec-11 10:32N 51°15' E 004°14'0 0.0
2016-Dec-11 09:32N 51°15' E 004°14'0 0.0
2016-Dec-11 08:32N 51°15' E 004°14'0 0.0
2016-Dec-11 07:32N 51°15' E 004°14'0 0.0
2016-Dec-11 06:32N 51°15' E 004°14'0 0.0
2016-Dec-11 05:32N 51°15' E 004°14'0 0.0
2016-Dec-11 04:32N 51°15' E 004°14'0 0.0
2016-Dec-11 03:29N 51°15' E 004°14'0 0.0
2016-Dec-11 02:32N 51°15' E 004°14'0 0.0
2016-Dec-11 01:32N 51°15' E 004°14'0 0.0
2016-Dec-11 00:29N 51°15' E 004°14'0 0.0
2016-Dec-10 23:32N 51°15' E 004°14'0 0.0
2016-Dec-10 22:32N 51°15' E 004°14'0 0.0
2016-Dec-10 21:29N 51°15' E 004°14'0 0.0
2016-Dec-10 20:29N 51°15' E 004°14'0 0.0
2016-Dec-10 19:29N 51°15' E 004°14'0 0.0
2016-Dec-10 18:29N 51°15' E 004°14'0 0.0
2016-Dec-10 17:32N 51°15' E 004°14'0 0.0
2016-Dec-10 16:29N 51°15' E 004°14'2 1.9
2016-Dec-10 15:34N 51°16' E 004°17'0 0.2
2016-Dec-10 14:33N 51°16' E 004°17'7 6.8
2016-Dec-10 13:33N 51°22' E 004°13'9 9.2
2016-Dec-10 12:33N 51°26' E 003°60'1110.7
2016-Dec-10 11:34N 51°23' E 003°44'1111.3
2016-Dec-10 10:34N 51°29' E 003°29'1211.7
2016-Dec-10 09:34N 51°39' E 003°19'1111.2
2016-Dec-10 08:33N 51°48' E 003°09'13 6.1
2016-Dec-10 06:21N 51°60' E 003°20'1112.7
2016-Dec-10 05:29N 52°11' E 003°23'  

Dump ship's entire track history